createdAt,value
2022-12-05T00:00:39.202Z,0.00
2022-12-05T00:01:39.038Z,0.00
2022-12-05T00:02:39.007Z,0.00
2022-12-05T00:03:38.778Z,0.00
2022-12-05T00:04:39.017Z,0.00
2022-12-05T00:05:38.744Z,0.00
2022-12-05T00:06:38.785Z,0.00
2022-12-05T00:07:38.844Z,0.00
2022-12-05T00:08:38.730Z,0.00
2022-12-05T00:10:10.659Z,0.00
2022-12-05T00:10:38.701Z,0.00
2022-12-05T00:11:39.853Z,0.00
2022-12-05T00:12:38.683Z,0.00
2022-12-05T00:13:38.702Z,0.00
2022-12-05T00:14:38.674Z,0.00
2022-12-05T00:15:38.682Z,0.00
2022-12-05T00:16:38.773Z,0.00
2022-12-05T00:17:39.704Z,0.00
2022-12-05T00:19:10.575Z,0.00
2022-12-05T00:19:38.837Z,0.00
2022-12-05T00:20:38.670Z,0.00
2022-12-05T00:21:38.627Z,0.00
2022-12-05T00:22:38.680Z,0.00
2022-12-05T00:23:38.627Z,0.00
2022-12-05T00:24:38.630Z,0.00
2022-12-05T00:25:38.607Z,0.00
2022-12-05T00:26:38.609Z,0.00
2022-12-05T00:27:38.624Z,0.00
2022-12-05T00:28:38.616Z,0.00
2022-12-05T00:29:38.609Z,0.00
2022-12-05T00:30:38.589Z,0.00
2022-12-05T00:31:38.678Z,0.00
2022-12-05T00:32:39.376Z,0.00
2022-12-05T00:33:38.576Z,0.00
2022-12-05T00:34:38.569Z,0.00
2022-12-05T00:35:38.584Z,0.00
2022-12-05T00:36:38.529Z,0.00
2022-12-05T00:37:38.510Z,0.00
2022-12-05T00:38:38.546Z,0.00
2022-12-05T00:39:38.547Z,0.00
2022-12-05T00:40:38.560Z,0.00
2022-12-05T00:41:38.560Z,0.00
2022-12-05T00:42:38.578Z,0.00
2022-12-05T00:43:38.481Z,0.00
2022-12-05T00:44:39.462Z,0.00
2022-12-05T00:45:38.546Z,0.00
2022-12-05T00:46:38.489Z,0.00
2022-12-05T00:47:38.438Z,0.00
2022-12-05T00:48:38.460Z,0.00
2022-12-05T00:49:38.410Z,0.00
2022-12-05T00:50:38.443Z,0.00
2022-12-05T00:51:38.472Z,0.00
2022-12-05T00:52:38.537Z,0.00
2022-12-05T00:53:38.402Z,0.00
2022-12-05T00:54:38.390Z,0.00
2022-12-05T00:55:38.412Z,0.00
2022-12-05T00:56:38.376Z,0.00
2022-12-05T00:57:38.373Z,0.00
2022-12-05T00:58:38.362Z,0.00
2022-12-05T00:59:38.377Z,0.00
2022-12-05T01:00:38.464Z,0.00
2022-12-05T01:01:38.485Z,0.00
2022-12-05T01:02:38.365Z,0.00
2022-12-05T01:03:38.376Z,0.00
2022-12-05T01:04:38.321Z,0.00
2022-12-05T01:05:38.366Z,0.00
2022-12-05T01:06:38.281Z,0.00
2022-12-05T01:07:38.348Z,0.00
2022-12-05T01:08:38.268Z,0.00
2022-12-05T01:09:38.289Z,0.00
2022-12-05T01:11:10.170Z,0.00
2022-12-05T01:11:41.445Z,0.00
2022-12-05T01:12:39.289Z,0.00
2022-12-05T01:13:38.226Z,0.00
2022-12-05T01:14:38.273Z,0.00
2022-12-05T01:15:38.214Z,0.00
2022-12-05T01:16:38.314Z,0.00
2022-12-05T01:17:38.291Z,0.00
2022-12-05T01:18:38.196Z,0.00
2022-12-05T01:19:38.180Z,0.00
2022-12-05T01:20:38.228Z,0.00
2022-12-05T01:21:38.187Z,0.00
2022-12-05T01:22:38.171Z,0.00
2022-12-05T01:23:38.132Z,0.00
2022-12-05T01:24:38.876Z,0.00
2022-12-05T01:25:38.141Z,0.00
2022-12-05T01:26:38.154Z,0.00
2022-12-05T01:27:38.140Z,0.00
2022-12-05T01:28:38.159Z,0.00
2022-12-05T01:29:38.097Z,0.00
2022-12-05T01:30:38.141Z,0.00
2022-12-05T01:31:38.144Z,0.00
2022-12-05T01:32:38.142Z,0.00
2022-12-05T01:33:38.106Z,0.00
2022-12-05T01:34:38.102Z,0.00
2022-12-05T01:35:38.081Z,0.00
2022-12-05T01:36:38.077Z,0.00
2022-12-05T01:37:38.056Z,0.00
2022-12-05T01:38:38.226Z,0.00
2022-12-05T01:39:38.042Z,0.00
2022-12-05T01:40:38.033Z,0.00
2022-12-05T01:41:38.090Z,0.00
2022-12-05T01:42:38.018Z,0.00
2022-12-05T01:43:38.040Z,0.00
2022-12-05T01:44:38.051Z,0.00
2022-12-05T01:45:38.079Z,0.00
2022-12-05T01:46:37.984Z,0.00
2022-12-05T01:47:37.980Z,0.00
2022-12-05T01:48:37.972Z,0.00
2022-12-05T01:49:37.996Z,0.00
2022-12-05T01:50:37.951Z,0.00
2022-12-05T01:51:37.975Z,0.00
2022-12-05T01:52:37.954Z,0.00
2022-12-05T01:53:37.936Z,0.00
2022-12-05T01:54:37.933Z,0.00
2022-12-05T01:55:37.962Z,0.00
2022-12-05T01:56:37.941Z,0.00
2022-12-05T01:57:37.972Z,0.00
2022-12-05T01:58:37.938Z,0.00
2022-12-05T02:00:09.828Z,0.00
2022-12-05T02:00:37.988Z,0.00
2022-12-05T02:01:37.943Z,0.00
2022-12-05T02:02:37.889Z,0.00
2022-12-05T02:03:37.842Z,0.00
2022-12-05T02:04:37.847Z,0.00
2022-12-05T02:05:37.866Z,0.00
2022-12-05T02:06:37.804Z,0.00
2022-12-05T02:07:38.953Z,0.00
2022-12-05T02:08:37.798Z,0.00
2022-12-05T02:09:37.803Z,0.00
2022-12-05T02:10:37.833Z,0.00
2022-12-05T02:11:37.789Z,0.00
2022-12-05T02:12:39.071Z,0.00
2022-12-05T02:13:38.781Z,0.00
2022-12-05T02:14:38.795Z,0.00
2022-12-05T02:15:37.825Z,0.00
2022-12-05T02:16:37.812Z,0.00
2022-12-05T02:17:37.784Z,0.00
2022-12-05T02:18:37.753Z,0.00
2022-12-05T02:19:37.728Z,0.00
2022-12-05T02:20:37.736Z,0.00
2022-12-05T02:21:37.714Z,0.00
2022-12-05T02:22:38.739Z,0.00
2022-12-05T02:23:37.735Z,0.00
2022-12-05T02:24:37.707Z,0.00
2022-12-05T02:25:37.695Z,0.00
2022-12-05T02:26:37.681Z,0.00
2022-12-05T02:27:37.734Z,0.00
2022-12-05T02:28:37.656Z,0.00
2022-12-05T02:29:37.666Z,0.00
2022-12-05T02:30:37.638Z,0.00
2022-12-05T02:31:37.759Z,0.00
2022-12-05T02:32:37.696Z,0.00
2022-12-05T02:33:37.848Z,0.00
2022-12-05T02:34:37.636Z,0.00
2022-12-05T02:35:37.678Z,0.00
2022-12-05T02:36:37.691Z,0.00
2022-12-05T02:37:37.607Z,0.00
2022-12-05T02:38:37.632Z,0.00
2022-12-05T02:39:37.611Z,0.00
2022-12-05T02:40:37.685Z,0.00
2022-12-05T02:41:37.574Z,0.00
2022-12-05T02:42:37.596Z,0.00
2022-12-05T02:43:37.671Z,0.00
2022-12-05T02:44:37.585Z,0.00
2022-12-05T02:45:37.683Z,0.00
2022-12-05T02:46:37.615Z,0.00
2022-12-05T02:47:37.538Z,0.00
2022-12-05T02:48:37.537Z,0.00
2022-12-05T02:49:37.551Z,0.00
2022-12-05T02:50:37.590Z,0.00
2022-12-05T02:51:37.545Z,0.00
2022-12-05T02:52:37.525Z,0.00
2022-12-05T02:53:38.498Z,0.00
2022-12-05T02:54:37.458Z,0.00
2022-12-05T02:55:37.484Z,0.00
2022-12-05T02:56:37.483Z,0.00
2022-12-05T02:57:37.447Z,0.00
2022-12-05T02:58:37.460Z,0.00
2022-12-05T02:59:37.449Z,0.00
2022-12-05T03:00:37.504Z,0.00
2022-12-05T03:01:37.492Z,0.00
2022-12-05T03:02:37.406Z,0.00
2022-12-05T03:03:37.403Z,0.00
2022-12-05T03:04:37.541Z,0.00
2022-12-05T03:05:37.406Z,0.00
2022-12-05T03:06:37.403Z,0.00
2022-12-05T03:07:37.492Z,0.00
2022-12-05T03:08:38.415Z,0.00
2022-12-05T03:09:37.354Z,0.00
2022-12-05T03:10:37.381Z,0.00
2022-12-05T03:11:37.436Z,0.00
2022-12-05T03:12:37.400Z,0.00
2022-12-05T03:13:37.329Z,0.00
2022-12-05T03:14:37.360Z,0.00
2022-12-05T03:15:37.306Z,0.00
2022-12-05T03:17:09.840Z,0.00
2022-12-05T03:17:37.350Z,0.00
2022-12-05T03:18:37.279Z,0.00
2022-12-05T03:19:37.368Z,0.00
2022-12-05T03:20:37.272Z,0.00
2022-12-05T03:21:37.261Z,0.00
2022-12-05T03:22:37.247Z,0.00
2022-12-05T03:23:37.279Z,0.00
2022-12-05T03:24:37.234Z,0.00
2022-12-05T03:25:37.232Z,0.00
2022-12-05T03:26:37.218Z,0.00
2022-12-05T03:27:37.404Z,0.00
2022-12-05T03:28:38.237Z,0.00
2022-12-05T03:29:37.248Z,0.00
2022-12-05T03:30:37.282Z,0.00
2022-12-05T03:31:37.206Z,0.00
2022-12-05T03:32:37.269Z,0.00
2022-12-05T03:33:37.178Z,0.00
2022-12-05T03:34:37.163Z,0.00
2022-12-05T03:35:37.152Z,0.00
2022-12-05T03:36:37.185Z,0.00
2022-12-05T03:37:37.142Z,0.00
2022-12-05T03:38:37.183Z,0.00
2022-12-05T03:39:37.136Z,0.00
2022-12-05T03:40:37.165Z,0.00
2022-12-05T03:41:37.121Z,0.00
2022-12-05T03:42:37.127Z,0.00
2022-12-05T03:43:37.153Z,0.00
2022-12-05T03:45:09.032Z,0.00
2022-12-05T03:45:37.121Z,0.00
2022-12-05T03:46:37.257Z,0.00
2022-12-05T03:47:37.101Z,0.00
2022-12-05T04:02:51.978Z,0.00
2022-12-05T04:03:52.152Z,0.00
2022-12-05T04:04:53.069Z,0.00
2022-12-05T04:05:53.119Z,0.00
2022-12-05T04:06:53.079Z,0.00
2022-12-05T04:07:53.102Z,0.00
2022-12-05T04:08:53.030Z,0.00
2022-12-05T04:09:53.027Z,0.00
2022-12-05T04:10:53.043Z,0.00
2022-12-05T04:11:53.116Z,0.00
2022-12-05T04:12:53.069Z,0.00
2022-12-05T04:13:53.051Z,0.00
2022-12-05T04:14:52.992Z,0.00
2022-12-05T04:15:53.067Z,0.00
2022-12-05T04:16:53.063Z,0.00
2022-12-05T04:17:53.896Z,0.00
2022-12-05T04:18:53.987Z,0.00
2022-12-05T04:19:52.963Z,0.00
2022-12-05T04:20:53.001Z,0.00
2022-12-05T04:21:53.020Z,0.00
2022-12-05T04:22:52.971Z,0.00
2022-12-05T04:23:52.942Z,0.00
2022-12-05T04:24:52.989Z,0.00
2022-12-05T04:25:52.928Z,0.00
2022-12-05T04:26:52.921Z,0.00
2022-12-05T04:27:52.902Z,0.00
2022-12-05T04:28:52.908Z,0.00
2022-12-05T04:29:52.929Z,0.00
2022-12-05T04:30:52.921Z,0.00
2022-12-05T04:31:52.901Z,0.00
2022-12-05T04:32:52.877Z,0.00
2022-12-05T04:33:52.854Z,0.00
2022-12-05T04:34:52.888Z,0.00
2022-12-05T04:35:52.892Z,0.00
2022-12-05T04:36:52.831Z,0.00
2022-12-05T04:37:52.851Z,0.00
2022-12-05T04:38:52.834Z,0.00
2022-12-05T04:39:52.865Z,0.00
2022-12-05T04:40:52.831Z,0.00
2022-12-05T04:41:52.887Z,0.00
2022-12-05T04:42:52.813Z,0.00
2022-12-05T04:43:52.773Z,0.00
2022-12-05T04:44:52.797Z,0.00
2022-12-05T04:45:52.802Z,0.00
2022-12-05T04:46:52.797Z,0.00
2022-12-05T04:47:52.755Z,0.00
2022-12-05T04:48:52.738Z,0.00
2022-12-05T04:49:53.937Z,0.00
2022-12-05T04:50:53.727Z,0.00
2022-12-05T04:51:52.739Z,0.00
2022-12-05T04:52:52.713Z,0.00
2022-12-05T04:53:52.708Z,0.00
2022-12-05T04:54:52.674Z,0.00
2022-12-05T04:55:53.692Z,0.00
2022-12-05T04:56:55.624Z,0.00
2022-12-05T04:57:53.678Z,0.00
2022-12-05T04:58:52.770Z,0.00
2022-12-05T04:59:52.670Z,0.00
2022-12-05T05:00:52.651Z,0.00
2022-12-05T05:01:52.748Z,0.00
2022-12-05T05:02:52.705Z,0.00
2022-12-05T05:03:52.631Z,0.00
2022-12-05T05:04:52.621Z,0.00
2022-12-05T05:05:52.638Z,0.00
2022-12-05T05:06:52.678Z,0.00
2022-12-05T05:07:52.726Z,0.00
2022-12-05T05:08:52.593Z,0.00
2022-12-05T05:09:52.666Z,0.00
2022-12-05T05:10:52.589Z,0.00
2022-12-05T05:11:52.566Z,0.00
2022-12-05T05:12:52.581Z,0.00
2022-12-05T05:13:52.581Z,0.00
2022-12-05T05:14:52.592Z,0.00
2022-12-05T05:15:52.601Z,0.00
2022-12-05T05:16:52.554Z,0.00
2022-12-05T05:17:52.518Z,0.00
2022-12-05T05:18:52.571Z,0.00
2022-12-05T05:19:52.497Z,0.00
2022-12-05T05:20:52.559Z,0.00
2022-12-05T05:21:52.497Z,0.00
2022-12-05T05:22:52.483Z,0.00
2022-12-05T05:23:52.616Z,0.00
2022-12-05T05:24:52.484Z,0.00
2022-12-05T05:25:52.460Z,0.00
2022-12-05T05:26:57.075Z,0.00
2022-12-05T05:27:54.447Z,0.00
2022-12-05T05:28:52.497Z,0.00
2022-12-05T05:29:52.441Z,0.00
2022-12-05T05:30:52.484Z,0.00
2022-12-05T05:31:52.407Z,0.00
2022-12-05T05:32:52.426Z,0.00
2022-12-05T05:33:52.404Z,0.00
2022-12-05T05:34:52.410Z,0.00
2022-12-05T05:35:52.429Z,0.00
2022-12-05T05:36:52.426Z,0.00
2022-12-05T05:37:52.407Z,0.00
2022-12-05T05:38:52.365Z,0.00
2022-12-05T05:39:52.388Z,0.00
2022-12-05T05:40:52.366Z,0.00
2022-12-05T05:41:52.374Z,0.00
2022-12-05T05:42:52.336Z,0.00
2022-12-05T05:43:52.346Z,0.00
2022-12-05T05:44:52.340Z,0.00
2022-12-05T05:45:52.333Z,0.00
2022-12-05T05:46:52.397Z,0.00
2022-12-05T05:47:52.291Z,0.00
2022-12-05T05:48:52.312Z,0.00
2022-12-05T05:49:52.331Z,0.00
2022-12-05T05:50:52.302Z,0.00
2022-12-05T05:51:52.300Z,0.00
2022-12-05T05:52:52.304Z,0.00
2022-12-05T05:53:52.245Z,0.00
2022-12-05T05:54:52.263Z,0.00
2022-12-05T05:55:52.315Z,0.00
2022-12-05T05:56:52.271Z,0.00
2022-12-05T05:57:52.250Z,0.00
2022-12-05T05:58:52.218Z,0.00
2022-12-05T05:59:52.201Z,0.00
2022-12-05T06:00:52.230Z,0.00
2022-12-05T06:01:52.206Z,0.00
2022-12-05T06:02:52.290Z,0.00
2022-12-05T06:03:52.325Z,0.00
2022-12-05T06:04:52.149Z,0.00
2022-12-05T06:05:53.197Z,0.00
2022-12-05T06:06:53.161Z,0.00
2022-12-05T06:07:52.250Z,0.00
2022-12-05T06:08:52.151Z,0.00
2022-12-05T06:09:52.146Z,0.00
2022-12-05T06:10:52.130Z,0.00
2022-12-05T06:11:52.142Z,0.00
2022-12-05T06:12:52.122Z,0.00
2022-12-05T06:13:52.082Z,0.00
2022-12-05T06:14:52.113Z,0.00
2022-12-05T06:15:52.318Z,0.00
2022-12-05T06:16:52.144Z,0.00
2022-12-05T06:17:52.084Z,0.00
2022-12-05T06:18:52.061Z,0.00
2022-12-05T06:19:52.071Z,0.00
2022-12-05T06:20:52.068Z,0.00
2022-12-05T06:21:52.057Z,0.00
2022-12-05T06:22:52.035Z,0.00
2022-12-05T06:23:52.031Z,0.00
2022-12-05T06:24:52.010Z,0.00
2022-12-05T06:25:52.010Z,0.00
2022-12-05T06:26:52.009Z,0.00
2022-12-05T06:28:24.450Z,0.00
2022-12-05T06:28:52.001Z,0.00
2022-12-05T06:29:52.982Z,0.00
2022-12-05T06:30:51.975Z,0.00
2022-12-05T06:31:52.062Z,0.00
2022-12-05T06:32:52.732Z,0.00
2022-12-05T06:33:51.966Z,0.00
2022-12-05T06:34:52.136Z,0.00
2022-12-05T06:35:51.950Z,0.00
2022-12-05T06:36:51.940Z,0.00
2022-12-05T06:37:51.919Z,0.00
2022-12-05T06:38:51.923Z,0.00
2022-12-05T06:39:51.924Z,0.00
2022-12-05T06:40:51.919Z,4.00
2022-12-05T06:41:51.906Z,4.00
2022-12-05T06:42:51.881Z,0.00
2022-12-05T06:43:55.113Z,4.00
2022-12-05T06:44:51.878Z,0.00
2022-12-05T06:45:51.936Z,4.00
2022-12-05T06:46:51.869Z,4.00
2022-12-05T06:47:52.014Z,4.00
2022-12-05T06:48:51.816Z,8.00
2022-12-05T06:49:51.822Z,4.00
2022-12-05T06:50:51.817Z,4.00
2022-12-05T06:51:51.823Z,8.00
2022-12-05T06:52:51.808Z,8.00
2022-12-05T06:53:51.825Z,12.00
2022-12-05T06:54:51.804Z,8.00
2022-12-05T06:55:51.851Z,12.00
2022-12-05T06:56:51.791Z,12.00
2022-12-05T06:57:51.812Z,16.00
2022-12-05T06:58:51.790Z,16.00
2022-12-05T06:59:51.746Z,16.00
2022-12-05T07:00:51.782Z,20.00
2022-12-05T07:01:51.925Z,20.00
2022-12-05T07:02:51.885Z,20.00
2022-12-05T07:03:51.726Z,24.00
2022-12-05T07:04:51.709Z,24.00
2022-12-05T07:05:51.691Z,28.00
2022-12-05T07:06:51.693Z,28.00
2022-12-05T07:07:51.787Z,36.00
2022-12-05T07:08:51.688Z,40.00
2022-12-05T07:09:51.686Z,44.00
2022-12-05T07:10:52.654Z,48.00
2022-12-05T07:11:51.728Z,56.00
2022-12-05T07:12:51.653Z,68.00
2022-12-05T07:13:51.682Z,72.00
2022-12-05T07:14:51.644Z,76.00
2022-12-05T07:15:51.664Z,80.00
2022-12-05T07:16:51.699Z,88.00
2022-12-05T07:17:51.627Z,96.00
2022-12-05T07:19:41.572Z,104.00
2022-12-05T07:19:51.595Z,108.00
2022-12-05T07:21:11.236Z,116.00
2022-12-05T07:21:54.583Z,124.00
2022-12-05T07:22:51.590Z,128.00
2022-12-05T07:23:53.551Z,136.00
2022-12-05T07:24:51.643Z,152.00
2022-12-05T07:25:51.555Z,164.00
2022-12-05T07:26:51.606Z,172.00
2022-12-05T07:27:51.542Z,180.00
2022-12-05T07:28:51.564Z,192.00
2022-12-05T07:29:51.536Z,188.00
2022-12-05T07:30:51.523Z,176.00
2022-12-05T07:31:51.546Z,160.00
2022-12-05T07:32:51.496Z,148.00
2022-12-05T07:33:51.704Z,144.00
2022-12-05T07:34:55.253Z,148.00
2022-12-05T07:35:52.504Z,156.00
2022-12-05T07:36:51.471Z,160.00
2022-12-05T07:37:51.482Z,160.00
2022-12-05T07:38:51.456Z,164.00
2022-12-05T07:39:51.440Z,164.00
2022-12-05T07:40:52.053Z,168.00
2022-12-05T07:41:52.454Z,172.00
2022-12-05T07:42:51.425Z,180.00
2022-12-05T07:43:51.412Z,180.00
2022-12-05T07:44:51.526Z,192.00
2022-12-05T07:45:51.493Z,192.00
2022-12-05T07:46:51.449Z,196.00
2022-12-05T07:47:51.420Z,204.00
2022-12-05T07:48:51.382Z,208.00
2022-12-05T07:49:51.355Z,204.00
2022-12-05T07:50:51.417Z,200.00
2022-12-05T07:51:51.372Z,204.00
2022-12-05T07:52:51.367Z,212.00
2022-12-05T07:53:51.322Z,220.00
2022-12-05T07:54:51.345Z,208.00
2022-12-05T07:55:51.319Z,188.00
2022-12-05T07:56:51.307Z,180.00
2022-12-05T07:57:51.372Z,176.00
2022-12-05T07:58:51.316Z,184.00
2022-12-05T07:59:51.330Z,196.00
2022-12-05T08:00:51.356Z,204.00
2022-12-05T08:01:51.385Z,212.00
2022-12-05T08:02:51.274Z,216.00
2022-12-05T08:03:51.251Z,224.00
2022-12-05T08:04:51.231Z,232.00
2022-12-05T08:05:52.289Z,236.00
2022-12-05T08:06:51.227Z,260.00
2022-12-05T08:07:51.281Z,292.00
2022-12-05T08:08:51.226Z,316.00
2022-12-05T08:09:51.226Z,332.00
2022-12-05T08:10:51.200Z,324.00
2022-12-05T08:11:52.847Z,316.00
2022-12-05T08:12:52.196Z,316.00
2022-12-05T08:13:51.165Z,340.00
2022-12-05T08:14:51.188Z,376.00
2022-12-05T08:15:51.159Z,412.00
2022-12-05T08:16:51.218Z,432.00
2022-12-05T08:17:51.202Z,444.00
2022-12-05T08:18:51.150Z,448.00
2022-12-05T08:19:51.129Z,440.00
2022-12-05T08:20:51.145Z,436.00
2022-12-05T08:21:51.138Z,416.00
2022-12-05T08:22:51.110Z,404.00
2022-12-05T08:23:51.136Z,408.00
2022-12-05T08:24:56.135Z,440.00
2022-12-05T08:25:53.091Z,476.00
2022-12-05T08:26:51.114Z,504.00
2022-12-05T08:27:51.150Z,516.00
2022-12-05T08:28:51.114Z,516.00
2022-12-05T08:29:51.040Z,512.00
2022-12-05T08:30:51.090Z,484.00
2022-12-05T08:31:51.052Z,472.00
2022-12-05T08:32:51.045Z,464.00
2022-12-05T08:33:55.548Z,476.00
2022-12-05T08:34:53.040Z,496.00
2022-12-05T08:35:51.020Z,512.00
2022-12-05T08:36:51.004Z,532.00
2022-12-05T08:37:51.017Z,560.00
2022-12-05T08:38:51.017Z,600.00
2022-12-05T08:39:50.963Z,672.00
2022-12-05T08:40:51.028Z,772.00
2022-12-05T08:41:50.970Z,888.00
2022-12-05T08:42:50.962Z,996.00
2022-12-05T08:43:50.969Z,1076.00
2022-12-05T08:44:50.998Z,1144.00
2022-12-05T08:45:50.952Z,1248.00
2022-12-05T08:46:50.933Z,1408.00
2022-12-05T08:47:50.901Z,1520.00
2022-12-05T08:48:50.955Z,1520.00
2022-12-05T08:49:50.922Z,1488.00
2022-12-05T08:50:50.909Z,1508.00
2022-12-05T08:51:50.881Z,1488.00
2022-12-05T08:52:50.888Z,1420.00
2022-12-05T08:54:23.280Z,1320.00
2022-12-05T08:54:50.932Z,1260.00
2022-12-05T08:56:26.870Z,1320.00
2022-12-05T08:56:50.895Z,1512.00
2022-12-05T08:58:22.760Z,1684.00
2022-12-05T08:58:50.833Z,1684.00
2022-12-05T08:59:50.911Z,1532.00
2022-12-05T09:00:50.859Z,1328.00
2022-12-05T09:01:50.916Z,1144.00
2022-12-05T09:02:50.863Z,1032.00
2022-12-05T09:03:50.786Z,1012.00
2022-12-05T09:04:53.832Z,1080.00
2022-12-05T09:05:54.888Z,1280.00
2022-12-05T09:06:51.827Z,1548.00
2022-12-05T09:07:50.847Z,1732.00
2022-12-05T09:08:50.836Z,1740.00
2022-12-05T09:09:50.740Z,1632.00
2022-12-05T09:10:50.766Z,1496.00
2022-12-05T09:11:50.761Z,1400.00
2022-12-05T09:12:50.742Z,1292.00
2022-12-05T09:13:50.740Z,1208.00
2022-12-05T09:14:50.713Z,1156.00
2022-12-05T09:15:50.754Z,1076.00
2022-12-05T09:16:59.901Z,1020.00
2022-12-05T09:17:50.762Z,968.00
2022-12-05T09:18:50.703Z,920.00
2022-12-05T09:19:50.772Z,872.00
2022-12-05T09:20:50.754Z,828.00
2022-12-05T09:21:50.764Z,808.00
2022-12-05T09:23:16.592Z,828.00
2022-12-05T09:23:50.737Z,888.00
2022-12-05T09:24:50.650Z,952.00
2022-12-05T09:25:50.673Z,960.00
2022-12-05T09:26:50.674Z,988.00
2022-12-05T09:27:50.841Z,1036.00
2022-12-05T09:28:50.633Z,1028.00
2022-12-05T09:29:50.582Z,1008.00
2022-12-05T09:30:50.637Z,1024.00
2022-12-05T09:31:50.584Z,1028.00
2022-12-05T09:32:50.564Z,1032.00
2022-12-05T09:33:50.561Z,1036.00
2022-12-05T09:34:50.565Z,1028.00
2022-12-05T09:35:50.526Z,1028.00
2022-12-05T09:36:50.528Z,1028.00
2022-12-05T09:37:50.526Z,1032.00
2022-12-05T09:38:50.501Z,1076.00
2022-12-05T09:39:50.533Z,1148.00
2022-12-05T09:40:51.267Z,1228.00
2022-12-05T09:41:50.496Z,1284.00
2022-12-05T09:42:50.605Z,1228.00
2022-12-05T09:43:50.500Z,1152.00
2022-12-05T09:44:50.485Z,1064.00
2022-12-05T09:45:50.626Z,1072.00
2022-12-05T09:46:50.492Z,1148.00
2022-12-05T09:47:50.487Z,1188.00
2022-12-05T09:48:50.449Z,1200.00
2022-12-05T09:49:50.423Z,1192.00
2022-12-05T09:50:50.476Z,1152.00
2022-12-05T09:51:55.085Z,1160.00
2022-12-05T09:52:52.440Z,1240.00
2022-12-05T09:53:50.409Z,1356.00
2022-12-05T09:54:50.409Z,1412.00
2022-12-05T09:55:50.434Z,1400.00
2022-12-05T09:56:50.378Z,1336.00
2022-12-05T09:57:50.373Z,1228.00
2022-12-05T09:58:50.392Z,1136.00
2022-12-05T09:59:50.408Z,1084.00
2022-12-05T10:00:50.353Z,1024.00
2022-12-05T10:01:51.240Z,984.00
2022-12-05T10:02:50.336Z,992.00
2022-12-05T10:03:50.440Z,984.00
2022-12-05T10:04:52.451Z,944.00
2022-12-05T10:05:51.497Z,888.00
2022-12-05T10:06:50.374Z,844.00
2022-12-05T10:07:50.404Z,856.00
2022-12-05T10:08:50.350Z,888.00
2022-12-05T10:09:50.313Z,904.00
2022-12-05T10:10:50.278Z,868.00
2022-12-05T10:11:50.316Z,828.00
2022-12-05T10:12:50.256Z,812.00
2022-12-05T10:13:50.279Z,792.00
2022-12-05T10:14:50.252Z,844.00
2022-12-05T10:15:55.628Z,868.00
2022-12-05T10:16:52.251Z,884.00
2022-12-05T10:17:50.250Z,892.00
2022-12-05T10:18:50.264Z,908.00
2022-12-05T10:19:50.238Z,900.00
2022-12-05T10:20:50.219Z,884.00
2022-12-05T10:21:50.217Z,880.00
2022-12-05T10:22:50.192Z,844.00
2022-12-05T10:23:57.667Z,868.00
2022-12-05T10:24:52.189Z,884.00
2022-12-05T10:25:50.185Z,836.00
2022-12-05T10:26:50.178Z,800.00
2022-12-05T10:27:50.189Z,752.00
2022-12-05T10:28:50.134Z,756.00
2022-12-05T10:29:50.691Z,916.00
2022-12-05T10:30:50.181Z,928.00
2022-12-05T10:31:50.163Z,852.00
2022-12-05T10:32:50.097Z,816.00
2022-12-05T10:33:50.086Z,840.00
2022-12-05T10:34:50.082Z,840.00
2022-12-05T10:35:50.094Z,812.00
2022-12-05T10:36:50.093Z,784.00
2022-12-05T10:37:50.090Z,756.00
2022-12-05T10:38:50.076Z,760.00
2022-12-05T10:39:50.062Z,772.00
2022-12-05T10:40:50.043Z,776.00
2022-12-05T10:41:50.440Z,744.00
2022-12-05T10:42:50.091Z,700.00
2022-12-05T10:43:50.020Z,696.00
2022-12-05T10:44:50.031Z,728.00
2022-12-05T10:45:50.011Z,740.00
2022-12-05T10:46:50.107Z,708.00
2022-12-05T10:47:50.010Z,748.00
2022-12-05T10:48:49.976Z,784.00
2022-12-05T10:49:49.969Z,796.00
2022-12-05T10:50:50.030Z,820.00
2022-12-05T10:51:49.994Z,836.00
2022-12-05T10:52:49.946Z,900.00
2022-12-05T10:53:49.967Z,952.00
2022-12-05T10:54:49.960Z,952.00
2022-12-05T10:56:21.469Z,984.00
2022-12-05T10:56:51.959Z,1080.00
2022-12-05T10:57:49.937Z,1068.00
2022-12-05T10:58:49.926Z,1064.00
2022-12-05T10:59:49.955Z,996.00
2022-12-05T11:00:49.895Z,916.00
2022-12-05T11:01:49.938Z,908.00
2022-12-05T11:02:49.877Z,892.00
2022-12-05T11:03:49.874Z,884.00
2022-12-05T11:04:49.975Z,868.00
2022-12-05T11:05:49.851Z,844.00
2022-12-05T11:06:49.841Z,804.00
2022-12-05T11:07:50.032Z,772.00
2022-12-05T11:09:06.429Z,748.00
2022-12-05T11:09:51.803Z,716.00
2022-12-05T11:10:49.823Z,684.00
2022-12-05T11:11:49.846Z,668.00
2022-12-05T11:12:49.807Z,672.00
2022-12-05T11:13:49.792Z,680.00
2022-12-05T11:14:49.828Z,708.00
2022-12-05T11:15:55.354Z,720.00
2022-12-05T11:16:51.824Z,752.00
2022-12-05T11:17:49.746Z,828.00
2022-12-05T11:18:49.761Z,876.00
2022-12-05T11:19:49.766Z,868.00
2022-12-05T11:20:49.743Z,880.00
2022-12-05T11:21:49.719Z,908.00
2022-12-05T11:22:49.719Z,928.00
2022-12-05T11:23:49.705Z,952.00
2022-12-05T11:24:49.734Z,1008.00
2022-12-05T11:25:49.680Z,1080.00
2022-12-05T11:26:49.673Z,1180.00
2022-12-05T11:27:49.672Z,1320.00
2022-12-05T11:28:49.672Z,1312.00
2022-12-05T11:29:49.677Z,1208.00
2022-12-05T11:30:49.669Z,1116.00
2022-12-05T11:31:49.652Z,1048.00
2022-12-05T11:32:49.662Z,992.00
2022-12-05T11:33:49.637Z,1004.00
2022-12-05T11:34:49.660Z,1028.00
2022-12-05T11:35:49.647Z,1012.00
2022-12-05T11:36:49.630Z,976.00
2022-12-05T11:37:49.594Z,912.00
2022-12-05T11:38:49.567Z,880.00
2022-12-05T11:39:50.584Z,892.00
2022-12-05T11:40:49.601Z,852.00
2022-12-05T11:41:49.587Z,936.00
2022-12-05T11:42:49.582Z,1032.00
2022-12-05T11:43:49.557Z,1088.00
2022-12-05T11:44:49.551Z,1076.00
2022-12-05T11:45:49.596Z,1076.00
2022-12-05T11:46:49.640Z,1096.00
2022-12-05T11:47:49.538Z,1164.00
2022-12-05T11:48:49.495Z,1160.00
2022-12-05T11:49:50.504Z,1164.00
2022-12-05T11:50:49.503Z,1188.00
2022-12-05T11:51:49.515Z,1256.00
2022-12-05T11:52:49.513Z,1316.00
2022-12-05T11:53:49.482Z,1316.00
2022-12-05T11:55:05.137Z,1328.00
2022-12-05T11:55:51.500Z,1340.00
2022-12-05T11:56:49.505Z,1312.00
2022-12-05T11:57:52.534Z,1284.00
2022-12-05T11:58:50.471Z,1256.00
2022-12-05T11:59:49.441Z,1232.00
2022-12-05T12:00:49.407Z,1240.00
2022-12-05T12:01:49.455Z,1252.00
2022-12-05T12:02:49.521Z,1224.00
2022-12-05T12:03:49.469Z,1168.00
2022-12-05T12:04:49.406Z,1092.00
2022-12-05T12:05:49.363Z,1012.00
2022-12-05T12:06:49.423Z,1036.00
2022-12-05T12:07:49.439Z,1052.00
2022-12-05T12:08:49.387Z,1060.00
2022-12-05T12:09:49.362Z,1044.00
2022-12-05T12:10:49.360Z,988.00
2022-12-05T12:11:49.337Z,932.00
2022-12-05T12:12:49.360Z,896.00
2022-12-05T12:13:49.337Z,932.00
2022-12-05T12:14:49.292Z,980.00
2022-12-05T12:15:49.306Z,1012.00
2022-12-05T12:16:49.387Z,1060.00
2022-12-05T12:17:49.282Z,1052.00
2022-12-05T12:18:49.288Z,964.00
2022-12-05T12:19:49.266Z,860.00
2022-12-05T12:20:49.273Z,784.00
2022-12-05T12:21:49.250Z,772.00
2022-12-05T12:22:49.254Z,816.00
2022-12-05T12:23:49.260Z,856.00
2022-12-05T12:24:49.227Z,844.00
2022-12-05T12:25:49.243Z,824.00
2022-12-05T12:26:49.253Z,844.00
2022-12-05T12:27:49.227Z,848.00
2022-12-05T12:28:49.229Z,856.00
2022-12-05T12:29:49.180Z,864.00
2022-12-05T12:30:49.200Z,868.00
2022-12-05T12:31:49.283Z,864.00
2022-12-05T12:32:49.161Z,880.00
2022-12-05T12:33:49.165Z,912.00
2022-12-05T12:34:49.163Z,960.00
2022-12-05T12:35:49.145Z,988.00
2022-12-05T12:36:49.160Z,988.00
2022-12-05T12:37:49.137Z,968.00
2022-12-05T12:38:51.440Z,920.00
2022-12-05T12:39:50.104Z,860.00
2022-12-05T12:40:49.112Z,820.00
2022-12-05T12:41:49.110Z,780.00
2022-12-05T12:42:49.908Z,740.00
2022-12-05T12:43:54.128Z,720.00
2022-12-05T12:44:51.088Z,700.00
2022-12-05T12:45:49.134Z,684.00
2022-12-05T12:46:49.052Z,672.00
2022-12-05T12:47:49.075Z,668.00
2022-12-05T12:48:49.063Z,692.00
2022-12-05T12:49:49.044Z,688.00
2022-12-05T12:50:49.040Z,700.00
2022-12-05T12:51:49.023Z,700.00
2022-12-05T12:52:49.012Z,696.00
2022-12-05T12:53:49.003Z,672.00
2022-12-05T12:55:03.997Z,680.00
2022-12-05T12:55:51.012Z,712.00
2022-12-05T12:56:48.980Z,660.00
2022-12-05T12:57:48.956Z,620.00
2022-12-05T12:58:48.958Z,628.00
2022-12-05T12:59:48.969Z,648.00
2022-12-05T13:00:49.013Z,628.00
2022-12-05T13:01:49.175Z,592.00
2022-12-05T13:02:49.066Z,592.00
2022-12-05T13:03:51.752Z,624.00
2022-12-05T13:04:49.927Z,632.00